Time;durP1;ratioP1;P1;durP2;ratioP2;P2;SDS_P1;SDS_P2;PMS_P1;PMS_P2;Temp;Humidity;BMP_temperature;BMP_pressure;BME280_temperature;BME280_humidity;BME280_pressure;Samples;Min_cycle;Max_cycle;Signal;HPM_P1;HPM_P2
2023/07/27 00:00:19;;;;;;;0.00;0.00;;;14.60;99.90;;;;;;5023169;28;20045;-69
2023/07/27 00:02:45;;;;;;;2.03;0.25;;;14.60;99.90;;;;;;5022602;28;20042;-69
2023/07/27 00:05:12;;;;;;;0.60;0.60;;;14.60;99.90;;;;;;5027393;28;20095;-69
2023/07/27 00:07:38;;;;;;;0.15;0.15;;;14.50;99.90;;;;;;5021887;28;20045;-69
2023/07/27 00:10:04;;;;;;;0.00;0.00;;;14.50;99.90;;;;;;5027595;28;20149;-69
2023/07/27 00:12:30;;;;;;;0.25;0.25;;;14.40;99.90;;;;;;5029512;28;20042;-69
2023/07/27 00:14:55;;;;;;;1.88;0.75;;;14.40;99.90;;;;;;5029814;28;20036;-69
2023/07/27 00:17:21;;;;;;;0.10;0.10;;;14.50;99.90;;;;;;5024224;28;20049;-69
2023/07/27 00:19:47;;;;;;;0.20;0.20;;;14.50;99.90;;;;;;5024321;28;20049;-69
2023/07/27 00:22:12;;;;;;;0.20;0.20;;;14.40;99.90;;;;;;5029274;28;20053;-69
2023/07/27 00:24:38;;;;;;;0.45;0.45;;;14.40;99.90;;;;;;5022058;28;20054;-69
2023/07/27 00:27:04;;;;;;;0.22;0.22;;;14.50;99.90;;;;;;5024945;28;20549;-69
2023/07/27 00:29:29;;;;;;;0.60;0.60;;;14.50;99.90;;;;;;5014073;28;20403;-69
2023/07/27 00:31:55;;;;;;;0.80;0.47;;;14.50;99.90;;;;;;5021103;28;20049;-69
2023/07/27 00:34:21;;;;;;;0.50;0.50;;;14.50;99.90;;;;;;5023961;28;20046;-69
2023/07/27 00:36:46;;;;;;;0.10;0.10;;;14.50;99.90;;;;;;5030265;28;20041;-69
2023/07/27 00:39:12;;;;;;;1.25;1.02;;;14.50;99.90;;;;;;5027979;28;20565;-69
2023/07/27 00:41:42;;;;;;;0.28;0.28;;;14.60;99.90;;;;;;5030136;28;20048;-69
2023/07/27 00:44:08;;;;;;;0.47;0.13;;;14.50;99.90;;;;;;5029016;28;20088;-69
2023/07/27 00:46:36;;;;;;;0.63;0.10;;;14.40;99.90;;;;;;5027050;28;20054;-69
2023/07/27 00:49:05;;;;;;;0.00;0.00;;;14.50;99.90;;;;;;5019031;28;20046;-69
2023/07/27 00:51:35;;;;;;;0.13;0.13;;;14.50;99.90;;;;;;5025552;28;20490;-69
2023/07/27 00:54:02;;;;;;;0.00;0.00;;;14.50;99.90;;;;;;5019730;28;20492;-69
2023/07/27 00:56:29;;;;;;;0.08;0.08;;;14.50;99.90;;;;;;5024447;28;20068;-69
2023/07/27 00:58:57;;;;;;;0.30;0.30;;;14.60;99.90;;;;;;5031765;28;20077;-69
2023/07/27 01:01:22;;;;;;;2.72;0.85;;;14.60;99.90;;;;;;5027844;28;20058;-69
2023/07/27 01:03:48;;;;;;;0.75;0.75;;;14.60;99.90;;;;;;5027490;28;20045;-69
2023/07/27 01:06:14;;;;;;;0.13;0.13;;;14.50;99.90;;;;;;5022149;28;20038;-69
2023/07/27 01:08:39;;;;;;;0.40;0.40;;;14.60;99.90;;;;;;5023165;28;20095;-69
2023/07/27 01:11:34;;;;;;;0.10;0.10;;;14.60;99.90;;;;;;5034945;28;20037;-69
2023/07/27 01:14:17;;;;;;;0.38;0.38;;;14.60;99.90;;;;;;5033592;28;20144;-69
2023/07/27 01:17:00;;;;;;;0.20;0.20;;;14.60;99.90;;;;;;5021026;28;20124;-69
2023/07/27 01:19:59;;;;;;;1.33;0.77;;;14.60;99.90;;;;;;5029081;28;20041;-69
2023/07/27 01:22:28;;;;;;;0.22;0.17;;;14.50;99.90;;;;;;5027312;28;20098;-69
2023/07/27 01:25:02;;;;;;;0.25;0.25;;;14.50;99.90;;;;;;5029723;28;20382;-69
2023/07/27 01:27:36;;;;;;;0.28;0.28;;;14.50;99.90;;;;;;5030217;28;20444;-69
2023/07/27 01:30:04;;;;;;;1.02;0.73;;;14.50;99.90;;;;;;5028827;28;20041;-69
2023/07/27 01:32:33;;;;;;;0.30;0.30;;;14.40;99.90;;;;;;5028050;28;20053;-69
2023/07/27 01:35:02;;;;;;;0.05;0.05;;;14.40;99.90;;;;;;5019468;28;20470;-68
2023/07/27 01:37:30;;;;;;;0.30;0.30;;;14.40;99.90;;;;;;5026129;28;20523;-69
2023/07/27 01:39:58;;;;;;;0.17;0.17;;;14.40;99.90;;;;;;5030268;28;20563;-69
2023/07/27 01:42:24;;;;;;;0.10;0.10;;;14.40;99.90;;;;;;5027082;28;20057;-69
2023/07/27 01:44:52;;;;;;;0.20;0.20;;;14.50;99.90;;;;;;5027415;28;20049;-69
2023/07/27 01:47:19;;;;;;;0.20;0.15;;;14.50;99.90;;;;;;5027040;28;20041;-69
2023/07/27 01:49:45;;;;;;;2.55;0.85;;;14.50;99.90;;;;;;5027677;28;20041;-69
2023/07/27 01:52:14;;;;;;;0.30;0.30;;;14.50;99.90;;;;;;5017132;28;20493;-69
2023/07/27 01:54:39;;;;;;;0.17;0.17;;;14.50;99.90;;;;;;5027646;28;20041;-69
2023/07/27 01:57:06;;;;;;;0.17;0.17;;;14.50;99.90;;;;;;5024439;28;20053;-69
2023/07/27 01:59:34;;;;;;;0.00;0.00;;;14.50;99.90;;;;;;5022203;28;20080;-69
2023/07/27 02:02:01;;;;;;;0.00;0.00;;;14.50;99.90;;;;;;5020102;28;20038;-69
2023/07/27 02:04:27;;;;;;;0.80;0.30;;;14.50;99.90;;;;;;5029443;28;20140;-69
2023/07/27 02:06:53;;;;;;;0.90;0.85;;;14.60;99.90;;;;;;5035018;28;20037;-69
2023/07/27 02:09:18;;;;;;;0.20;0.20;;;14.60;99.90;;;;;;5016649;28;20045;-69
2023/07/27 02:11:49;;;;;;;0.98;0.77;;;14.60;99.90;;;;;;5032410;28;20060;-69
2023/07/27 02:14:38;;;;;;;0.00;0.00;;;14.60;99.90;;;;;;5028048;28;20412;-69
2023/07/27 02:17:19;;;;;;;1.05;0.95;;;14.70;99.90;;;;;;5033246;28;20042;-69
2023/07/27 02:19:50;;;;;;;0.20;0.20;;;14.70;99.90;;;;;;5024285;28;20124;-69
2023/07/27 02:22:16;;;;;;;0.30;0.30;;;14.70;99.90;;;;;;5028581;28;20482;-69
2023/07/27 02:24:42;;;;;;;0.00;0.00;;;14.80;99.90;;;;;;5034696;28;20497;-69
2023/07/27 02:27:08;;;;;;;0.10;0.10;;;14.70;99.90;;;;;;5032094;28;20041;-69
2023/07/27 02:29:34;;;;;;;0.38;0.38;;;14.80;99.90;;;;;;5034573;28;20052;-69
2023/07/27 02:31:59;;;;;;;0.00;0.00;;;14.80;99.90;;;;;;5027689;28;20053;-69
2023/07/27 02:34:25;;;;;;;0.75;0.75;;;14.90;99.90;;;;;;5018304;28;20042;-69
2023/07/27 02:36:50;;;;;;;0.00;0.00;;;14.90;99.90;;;;;;5034729;28;20626;-68
2023/07/27 02:39:16;;;;;;;0.03;0.03;;;14.90;99.90;;;;;;5037531;28;20045;-69
2023/07/27 02:41:41;;;;;;;0.10;0.10;;;14.90;99.90;;;;;;5031404;28;20038;-69
2023/07/27 02:44:07;;;;;;;0.20;0.20;;;14.90;99.90;;;;;;5025475;28;20072;-69
2023/07/27 02:46:33;;;;;;;2.67;0.28;;;15.00;99.90;;;;;;5039733;28;20412;-69
2023/07/27 02:48:58;;;;;;;0.00;0.00;;;15.00;99.90;;;;;;5035259;28;20045;-69
2023/07/27 02:51:24;;;;;;;0.00;0.00;;;14.90;99.90;;;;;;5023322;28;20037;-69
2023/07/27 02:53:49;;;;;;;0.20;0.20;;;14.90;99.90;;;;;;5026291;28;20131;-69
2023/07/27 02:56:15;;;;;;;0.00;0.00;;;14.90;99.90;;;;;;5027129;28;20087;-69
2023/07/27 02:58:41;;;;;;;0.00;0.00;;;14.90;99.90;;;;;;5029238;28;20120;-69
2023/07/27 03:01:06;;;;;;;0.30;0.30;;;15.00;99.90;;;;;;5029596;28;20478;-69
2023/07/27 03:03:32;;;;;;;0.10;0.10;;;15.00;99.90;;;;;;5019265;28;20404;-68
2023/07/27 03:06:00;;;;;;;4.65;0.90;;;15.00;99.90;;;;;;5025525;28;20037;-69
2023/07/27 03:08:29;;;;;;;0.45;0.08;;;14.90;99.90;;;;;;5021202;28;20362;-69
2023/07/27 03:10:59;;;;;;;0.00;0.00;;;15.00;99.90;;;;;;5026091;28;20478;-68
2023/07/27 03:13:25;;;;;;;0.00;0.00;;;14.90;99.90;;;;;;5020303;28;20049;-69
2023/07/27 03:15:51;;;;;;;0.45;0.43;;;15.00;99.90;;;;;;5021404;28;20038;-69
2023/07/27 03:18:17;;;;;;;0.20;0.20;;;14.90;99.90;;;;;;5017271;28;20090;-69
2023/07/27 03:20:43;;;;;;;0.20;0.20;;;14.90;99.90;;;;;;5035584;28;20405;-69
2023/07/27 03:23:10;;;;;;;0.47;0.47;;;15.00;99.90;;;;;;5030109;28;20128;-69
2023/07/27 03:25:37;;;;;;;0.00;0.00;;;14.90;99.90;;;;;;5020893;28;20030;-69
2023/07/27 03:28:05;;;;;;;0.10;0.10;;;15.00;99.90;;;;;;5028707;28;20091;-69
2023/07/27 03:30:31;;;;;;;0.10;0.10;;;14.90;99.90;;;;;;5040193;28;20029;-69
2023/07/27 03:32:57;;;;;;;0.00;0.00;;;14.90;99.90;;;;;;5033256;28;20545;-69
2023/07/27 03:35:23;;;;;;;0.22;0.22;;;15.00;99.90;;;;;;5015870;28;20042;-68
2023/07/27 03:37:50;;;;;;;0.10;0.10;;;14.90;99.90;;;;;;5036107;28;20227;-69
2023/07/27 03:40:16;;;;;;;0.55;0.55;;;15.00;99.90;;;;;;5033709;28;20472;-69
2023/07/27 03:42:42;;;;;;;1.02;0.65;;;14.90;99.90;;;;;;5024521;28;20060;-69
2023/07/27 03:45:08;;;;;;;0.40;0.40;;;14.90;99.90;;;;;;5032500;28;20044;-69
2023/07/27 03:47:34;;;;;;;0.00;0.00;;;14.90;99.90;;;;;;5030668;28;20046;-68
2023/07/27 03:49:59;;;;;;;0.00;0.00;;;14.90;99.90;;;;;;5029412;28;20377;-69
2023/07/27 03:52:25;;;;;;;0.30;0.30;;;14.90;99.90;;;;;;5019364;28;20041;-69
2023/07/27 03:54:51;;;;;;;0.52;0.52;;;15.00;99.90;;;;;;5030344;28;20053;-69
2023/07/27 03:57:16;;;;;;;0.13;0.13;;;15.00;99.90;;;;;;5018791;28;20100;-69
2023/07/27 03:59:42;;;;;;;0.32;0.32;;;15.00;99.90;;;;;;5024934;28;20038;-69
2023/07/27 04:02:07;;;;;;;0.30;0.30;;;14.90;99.90;;;;;;5020632;28;20406;-69
2023/07/27 04:04:33;;;;;;;0.00;0.00;;;15.00;99.90;;;;;;5031985;28;20049;-69
2023/07/27 04:06:59;;;;;;;0.20;0.20;;;15.00;99.90;;;;;;5030582;28;20045;-68
2023/07/27 04:09:24;;;;;;;0.00;0.00;;;15.00;99.90;;;;;;5026944;28;20397;-69
2023/07/27 04:11:50;;;;;;;0.20;0.20;;;15.00;99.90;;;;;;5029778;28;20052;-69
2023/07/27 04:14:16;;;;;;;0.35;0.35;;;14.90;99.90;;;;;;5037098;28;20052;-69
2023/07/27 04:16:41;;;;;;;0.03;0.03;;;15.00;99.90;;;;;;5026436;28;20387;-69
2023/07/27 04:19:07;;;;;;;0.00;0.00;;;14.90;99.90;;;;;;5029190;28;20124;-69
2023/07/27 04:21:33;;;;;;;0.03;0.03;;;15.00;99.90;;;;;;5036858;28;20041;-68
2023/07/27 04:23:59;;;;;;;0.00;0.00;;;15.00;99.90;;;;;;5032532;28;20041;-69
2023/07/27 04:26:24;;;;;;;3.42;0.73;;;14.90;99.90;;;;;;5020193;28;20049;-69
2023/07/27 04:28:50;;;;;;;0.00;0.00;;;14.90;99.90;;;;;;5034064;28;20072;-69
2023/07/27 04:31:15;;;;;;;0.10;0.10;;;14.90;99.90;;;;;;5035378;28;20045;-69
2023/07/27 04:33:41;;;;;;;0.40;0.20;;;14.90;99.90;;;;;;5038248;28;20045;-69
2023/07/27 04:36:06;;;;;;;0.00;0.00;;;14.90;99.90;;;;;;5022947;28;20046;-69
2023/07/27 04:38:32;;;;;;;0.00;0.00;;;14.90;99.90;;;;;;5041706;28;20509;-69
2023/07/27 04:40:58;;;;;;;0.00;0.00;;;14.90;99.90;;;;;;5015298;28;20049;-69
2023/07/27 04:43:24;;;;;;;19.50;1.02;;;14.90;99.90;;;;;;5031046;28;20119;-69
2023/07/27 04:45:50;;;;;;;0.40;0.40;;;14.90;99.90;;;;;;5038643;28;20038;-69
2023/07/27 04:48:15;;;;;;;1.98;0.85;;;14.90;99.90;;;;;;5034053;28;20044;-69
2023/07/27 04:50:41;;;;;;;0.25;0.20;;;14.90;99.90;;;;;;5030398;28;20096;-69
2023/07/27 04:53:06;;;;;;;0.40;0.30;;;14.90;99.90;;;;;;5032892;28;20037;-69
2023/07/27 04:55:32;;;;;;;0.20;0.20;;;14.90;99.90;;;;;;5032175;28;20029;-69
2023/07/27 04:57:58;;;;;;;0.10;0.10;;;14.90;99.90;;;;;;5035728;28;20037;-69
2023/07/27 05:00:24;;;;;;;0.05;0.05;;;14.90;99.90;;;;;;5031625;28;20069;-69
2023/07/27 05:02:50;;;;;;;0.88;0.65;;;14.90;99.90;;;;;;5029701;28;20418;-69
2023/07/27 05:05:15;;;;;;;0.20;0.20;;;14.90;99.90;;;;;;5039765;28;20049;-69
2023/07/27 05:07:41;;;;;;;0.00;0.00;;;14.80;99.90;;;;;;5023128;28;20449;-69
2023/07/27 05:10:07;;;;;;;0.22;0.22;;;14.90;99.90;;;;;;5027443;28;20465;-69
2023/07/27 05:12:32;;;;;;;0.30;0.30;;;14.90;99.90;;;;;;5025578;28;20038;-69
2023/07/27 05:14:59;;;;;;;1.42;0.95;;;14.80;99.90;;;;;;5031850;28;20755;-69
2023/07/27 05:17:24;;;;;;;0.10;0.10;;;14.90;99.90;;;;;;5023835;28;20053;-69
2023/07/27 05:19:53;;;;;;;0.25;0.25;;;14.90;99.90;;;;;;5022450;28;20172;-69
2023/07/27 05:22:18;;;;;;;1.55;1.45;;;14.90;99.90;;;;;;5035478;28;20056;-69
2023/07/27 05:24:44;;;;;;;0.10;0.10;;;14.90;99.90;;;;;;5035411;28;20045;-69
2023/07/27 05:27:09;;;;;;;0.10;0.10;;;14.80;99.90;;;;;;5034960;28;20049;-69
2023/07/27 05:29:35;;;;;;;0.35;0.32;;;14.90;99.90;;;;;;5039714;28;20052;-69
2023/07/27 05:32:00;;;;;;;0.00;0.00;;;14.90;99.90;;;;;;5025057;28;20136;-69
2023/07/27 05:34:26;;;;;;;0.45;0.45;;;14.90;99.90;;;;;;5031465;28;20203;-69
2023/07/27 05:36:52;;;;;;;0.00;0.00;;;14.90;99.90;;;;;;5033563;28;20481;-69
2023/07/27 05:39:17;;;;;;;0.10;0.10;;;15.00;99.90;;;;;;5039986;28;20060;-69
2023/07/27 05:41:43;;;;;;;0.68;0.40;;;15.00;99.90;;;;;;5021171;28;20073;-69
2023/07/27 05:44:09;;;;;;;0.28;0.28;;;14.90;99.90;;;;;;5026831;28;20041;-69
2023/07/27 05:46:35;;;;;;;0.45;0.22;;;14.90;99.90;;;;;;5037423;28;20180;-69
2023/07/27 05:49:00;;;;;;;1.90;0.90;;;14.90;99.90;;;;;;5032234;28;20123;-69
2023/07/27 05:51:26;;;;;;;1.55;0.35;;;15.00;99.90;;;;;;5024203;28;20045;-69
2023/07/27 05:53:52;;;;;;;0.20;0.20;;;15.00;99.90;;;;;;5027298;28;20036;-69
2023/07/27 05:56:18;;;;;;;0.00;0.00;;;15.00;99.90;;;;;;5029516;28;20049;-70
2023/07/27 05:58:44;;;;;;;0.00;0.00;;;15.00;99.90;;;;;;5030951;28;20045;-70
2023/07/27 06:01:09;;;;;;;0.00;0.00;;;15.00;99.90;;;;;;5026092;28;20077;-69
2023/07/27 06:03:35;;;;;;;0.00;0.00;;;15.00;99.90;;;;;;5027418;28;20076;-69
2023/07/27 06:06:00;;;;;;;1.65;0.22;;;14.90;99.90;;;;;;5027440;28;20038;-69
2023/07/27 06:08:27;;;;;;;0.20;0.20;;;14.90;99.90;;;;;;5035984;28;20044;-70
2023/07/27 06:11:08;;;;;;;0.10;0.10;;;15.00;99.90;;;;;;5024472;28;20088;-70
2023/07/27 06:13:34;;;;;;;0.10;0.10;;;14.90;99.90;;;;;;5025159;28;20041;-70
2023/07/27 06:16:00;;;;;;;0.03;0.03;;;14.90;99.90;;;;;;5028577;28;20421;-69
2023/07/27 06:18:26;;;;;;;0.00;0.00;;;14.90;99.90;;;;;;5019061;28;20076;-70
2023/07/27 06:20:52;;;;;;;0.80;0.70;;;15.00;99.90;;;;;;5029115;28;20038;-69
2023/07/27 06:23:18;;;;;;;0.00;0.00;;;15.00;99.90;;;;;;5027841;28;20121;-69
2023/07/27 06:25:44;;;;;;;0.32;0.32;;;15.00;99.90;;;;;;5030370;28;20046;-69
2023/07/27 06:28:10;;;;;;;0.85;0.63;;;15.10;99.90;;;;;;5032313;28;20131;-69
2023/07/27 06:30:38;;;;;;;0.08;0.08;;;15.10;99.90;;;;;;5033053;28;20046;-69
2023/07/27 06:33:05;;;;;;;0.00;0.00;;;15.10;99.90;;;;;;5027289;28;20631;-70
2023/07/27 06:35:31;;;;;;;0.32;0.32;;;15.10;99.90;;;;;;5028071;28;20041;-70
2023/07/27 06:37:56;;;;;;;0.10;0.10;;;15.20;99.90;;;;;;5023516;28;20441;-69
2023/07/27 06:40:22;;;;;;;0.28;0.28;;;15.20;99.90;;;;;;5032227;28;20044;-69
2023/07/27 06:42:48;;;;;;;1.08;0.40;;;15.30;99.90;;;;;;5020827;28;20130;-69
2023/07/27 06:45:13;;;;;;;0.00;0.00;;;15.30;99.90;;;;;;5026402;28;20065;-69
2023/07/27 06:47:39;;;;;;;0.10;0.10;;;15.30;99.90;;;;;;5024461;28;20045;-69
2023/07/27 06:50:05;;;;;;;0.00;0.00;;;15.40;99.90;;;;;;5039120;28;20401;-69
2023/07/27 06:52:31;;;;;;;0.00;0.00;;;15.40;99.90;;;;;;5023063;28;20048;-69
2023/07/27 06:54:56;;;;;;;0.10;0.10;;;15.40;99.90;;;;;;5032307;28;20485;-69
2023/07/27 06:57:25;;;;;;;0.00;0.00;;;15.40;99.90;;;;;;5025791;28;20523;-69
2023/07/27 06:59:50;;;;;;;1.42;0.50;;;15.40;99.90;;;;;;5034371;28;20037;-70
2023/07/27 07:02:16;;;;;;;0.30;0.30;;;15.40;99.90;;;;;;5021822;28;20072;-70
2023/07/27 07:04:42;;;;;;;0.00;0.00;;;15.50;99.90;;;;;;5021153;28;20098;-70
2023/07/27 07:07:07;;;;;;;0.00;0.00;;;15.50;99.90;;;;;;5027994;28;20042;-70
2023/07/27 07:09:35;;;;;;;0.10;0.10;;;15.60;99.90;;;;;;5023466;28;20128;-70
2023/07/27 07:12:02;;;;;;;0.80;0.47;;;15.60;99.90;;;;;;5024614;28;20072;-69
2023/07/27 07:14:28;;;;;;;0.00;0.00;;;15.60;99.90;;;;;;5033787;28;20512;-70
2023/07/27 07:16:53;;;;;;;0.13;0.13;;;15.70;99.90;;;;;;5027267;28;20037;-70
2023/07/27 07:19:19;;;;;;;0.10;0.10;;;15.70;99.90;;;;;;5014946;28;20443;-70
2023/07/27 07:21:44;;;;;;;0.20;0.20;;;15.80;99.90;;;;;;5020603;28;20037;-70
2023/07/27 07:24:10;;;;;;;0.10;0.10;;;15.70;99.90;;;;;;5023034;28;20069;-70
2023/07/27 07:26:36;;;;;;;0.60;0.60;;;15.80;99.90;;;;;;5026750;28;20049;-70
2023/07/27 07:29:01;;;;;;;0.00;0.00;;;15.80;99.90;;;;;;5025075;28;20049;-69
2023/07/27 07:31:27;;;;;;;0.00;0.00;;;15.90;99.90;;;;;;5014313;28;20037;-71
2023/07/27 07:33:53;;;;;;;0.32;0.15;;;15.80;99.90;;;;;;5027276;28;20103;-70
2023/07/27 07:36:18;;;;;;;0.10;0.10;;;15.90;99.90;;;;;;5033709;28;20041;-69
2023/07/27 07:38:44;;;;;;;0.22;0.22;;;15.80;99.90;;;;;;5034622;28;20052;-69
2023/07/27 07:41:10;;;;;;;0.10;0.10;;;15.80;99.90;;;;;;5023398;28;20075;-70
2023/07/27 07:43:35;;;;;;;0.00;0.00;;;15.80;99.90;;;;;;5029032;28;20033;-69
2023/07/27 07:46:01;;;;;;;1.88;0.57;;;15.70;99.90;;;;;;5032021;28;20138;-69
2023/07/27 07:48:27;;;;;;;0.00;0.00;;;15.80;99.90;;;;;;5024785;28;20101;-68
2023/07/27 07:50:53;;;;;;;0.57;0.20;;;15.80;99.90;;;;;;5025283;28;20596;-69
2023/07/27 07:53:18;;;;;;;0.30;0.30;;;15.80;99.90;;;;;;5030644;28;20026;-70
2023/07/27 07:55:44;;;;;;;0.30;0.30;;;15.90;99.90;;;;;;5021303;28;20076;-70
2023/07/27 07:58:10;;;;;;;0.00;0.00;;;15.80;99.90;;;;;;5025174;28;20054;-70
2023/07/27 08:00:35;;;;;;;0.20;0.20;;;15.90;99.90;;;;;;5026847;28;20037;-70
2023/07/27 08:03:01;;;;;;;0.13;0.13;;;15.90;99.90;;;;;;5022553;28;20037;-69
2023/07/27 08:05:26;;;;;;;2.30;0.43;;;15.90;99.90;;;;;;5039632;28;20096;-70
2023/07/27 08:07:52;;;;;;;0.00;0.00;;;16.00;99.90;;;;;;5035908;28;20036;-70
2023/07/27 08:10:18;;;;;;;0.00;0.00;;;15.90;99.90;;;;;;5031685;28;20076;-69
2023/07/27 08:12:45;;;;;;;0.00;0.00;;;15.90;99.90;;;;;;5036637;28;20044;-70
2023/07/27 08:15:11;;;;;;;0.00;0.00;;;15.90;99.90;;;;;;5040690;28;20053;-70
2023/07/27 08:17:36;;;;;;;0.00;0.00;;;15.90;99.90;;;;;;5029658;28;20052;-70
2023/07/27 08:20:03;;;;;;;0.10;0.10;;;15.90;99.90;;;;;;5031459;28;20125;-70
2023/07/27 08:22:29;;;;;;;0.00;0.00;;;15.90;99.90;;;;;;5040208;28;20052;-70
2023/07/27 08:24:54;;;;;;;0.20;0.20;;;15.80;99.90;;;;;;5019961;28;20049;-69
2023/07/27 08:27:20;;;;;;;0.00;0.00;;;15.90;99.90;;;;;;5029519;28;20029;-69
2023/07/27 08:29:46;;;;;;;0.10;0.10;;;15.90;99.90;;;;;;5028447;28;20456;-69
2023/07/27 08:32:12;;;;;;;0.20;0.20;;;15.90;99.90;;;;;;5032897;28;20136;-70
2023/07/27 08:34:37;;;;;;;0.00;0.00;;;15.90;99.90;;;;;;5034227;28;20052;-70
2023/07/27 08:37:03;;;;;;;0.00;0.00;;;15.90;99.90;;;;;;5028287;28;20065;-69
2023/07/27 08:39:28;;;;;;;0.00;0.00;;;15.90;99.90;;;;;;5024645;28;20482;-70
2023/07/27 08:41:55;;;;;;;0.00;0.00;;;16.00;99.90;;;;;;5039610;28;20046;-70
2023/07/27 08:44:21;;;;;;;0.25;0.22;;;15.90;99.90;;;;;;5022664;28;20042;-69
2023/07/27 08:46:49;;;;;;;0.30;0.30;;;15.90;99.90;;;;;;5022331;28;20045;-70
2023/07/27 08:49:15;;;;;;;0.00;0.00;;;15.90;99.90;;;;;;5024828;28;20072;-70
2023/07/27 08:51:44;;;;;;;0.00;0.00;;;15.90;99.90;;;;;;5025579;28;20060;-69
2023/07/27 08:54:10;;;;;;;0.00;0.00;;;15.90;99.90;;;;;;5025673;28;20045;-70
2023/07/27 08:56:35;;;;;;;0.00;0.00;;;16.00;99.90;;;;;;5035392;28;20045;-70
2023/07/27 08:59:01;;;;;;;0.00;0.00;;;16.00;99.90;;;;;;5035087;28;20060;-69
2023/07/27 09:01:27;;;;;;;0.00;0.00;;;16.00;99.90;;;;;;5031335;28;20052;-70
2023/07/27 09:03:52;;;;;;;0.00;0.00;;;15.90;99.90;;;;;;5029567;28;20128;-70
2023/07/27 09:06:39;;;;;;;0.00;0.00;;;15.90;99.90;;;;;;5041209;28;20120;-70
2023/07/27 09:09:12;;;;;;;0.00;0.00;;;16.00;99.90;;;;;;5032712;28;20482;-70
2023/07/27 09:11:39;;;;;;;0.00;0.00;;;16.00;99.90;;;;;;5020406;28;20045;-70
2023/07/27 09:14:04;;;;;;;0.00;0.00;;;16.10;99.90;;;;;;5035860;28;20082;-70
2023/07/27 09:16:34;;;;;;;0.00;0.00;;;16.00;99.90;;;;;;5022682;28;20049;-70
2023/07/27 09:19:00;;;;;;;0.00;0.00;;;16.00;99.90;;;;;;5020935;28;20045;-70
2023/07/27 09:21:27;;;;;;;0.00;0.00;;;16.10;99.90;;;;;;5028772;28;20155;-70
2023/07/27 09:23:56;;;;;;;2.15;0.30;;;16.10;99.90;;;;;;5021884;28;20072;-70
2023/07/27 09:26:25;;;;;;;0.10;0.10;;;16.10;99.90;;;;;;5025121;28;20061;-69
2023/07/27 09:28:52;;;;;;;0.00;0.00;;;16.20;99.90;;;;;;5022722;28;20041;-69
2023/07/27 09:31:18;;;;;;;0.00;0.00;;;16.20;99.90;;;;;;5030017;28;20049;-69
2023/07/27 09:33:44;;;;;;;0.03;0.03;;;16.20;99.90;;;;;;5026722;28;20106;-70
2023/07/27 09:36:10;;;;;;;0.00;0.00;;;16.30;99.90;;;;;;5025672;28;20034;-69
2023/07/27 09:38:36;;;;;;;0.00;0.00;;;16.20;99.90;;;;;;5035927;28;20049;-70
2023/07/27 09:41:08;;;;;;;0.00;0.00;;;16.30;99.90;;;;;;5028803;28;20029;-70
2023/07/27 09:43:41;;;;;;;0.08;0.08;;;16.30;99.90;;;;;;5026130;28;20700;-70
2023/07/27 09:46:06;;;;;;;0.00;0.00;;;16.30;99.90;;;;;;5022163;28;20050;-70
2023/07/27 09:51:08;;;;;;;0.00;0.00;;;16.30;99.90;;;;;;5297851;22;20064;-73
2023/07/27 09:53:35;;;;;;;0.00;0.00;;;16.40;99.90;;;;;;5026610;28;20064;-74
2023/07/27 09:56:01;;;;;;;0.03;0.03;;;16.40;99.90;;;;;;5041720;28;20049;-74
2023/07/27 09:58:28;;;;;;;0.13;0.13;;;16.40;99.90;;;;;;5047055;28;20033;-74
2023/07/27 10:00:54;;;;;;;0.70;0.63;;;16.50;99.90;;;;;;5042402;28;20444;-74
2023/07/27 10:03:20;;;;;;;0.00;0.00;;;16.50;99.90;;;;;;5044538;28;20048;-75
2023/07/27 10:05:46;;;;;;;0.90;0.47;;;16.60;99.90;;;;;;5028797;28;20041;-75
2023/07/27 10:08:12;;;;;;;0.00;0.00;;;16.60;99.90;;;;;;5041887;28;20048;-75
2023/07/27 10:10:39;;;;;;;0.00;0.00;;;16.70;99.90;;;;;;5045637;28;20083;-75
2023/07/27 10:13:30;;;;;;;0.00;0.00;;;16.80;99.90;;;;;;5047776;28;20037;-74
2023/07/27 10:15:57;;;;;;;0.38;0.30;;;16.80;99.90;;;;;;5043135;28;20099;-73
2023/07/27 10:18:25;;;;;;;0.00;0.00;;;16.80;99.90;;;;;;5043335;28;20498;-73
2023/07/27 10:20:51;;;;;;;0.00;0.00;;;16.80;99.90;;;;;;5018012;28;20045;-73
2023/07/27 10:23:28;;;;;;;0.00;0.00;;;16.90;99.90;;;;;;5050052;28;20072;-72
2023/07/27 10:25:56;;;;;;;0.00;0.00;;;17.00;99.90;;;;;;5043889;28;20493;-73
2023/07/27 10:28:48;;;;;;;0.00;0.00;;;16.90;99.90;;;;;;5034487;28;20044;-73
2023/07/27 10:31:15;;;;;;;0.00;0.00;;;17.00;99.90;;;;;;5036932;28;20065;-73
2023/07/27 10:34:07;;;;;;;0.00;0.00;;;16.90;99.90;;;;;;5045482;28;20474;-73
2023/07/27 10:36:53;;;;;;;0.00;0.00;;;17.00;99.90;;;;;;5041110;28;20045;-73
2023/07/27 10:39:28;;;;;;;0.00;0.00;;;17.00;99.90;;;;;;5035714;28;20099;-73
2023/07/27 10:41:58;;;;;;;0.00;0.00;;;17.00;99.90;;;;;;5035047;28;20042;-73
2023/07/27 10:44:28;;;;;;;0.10;0.10;;;17.10;99.90;;;;;;5034141;28;20461;-74
2023/07/27 10:46:56;;;;;;;0.00;0.00;;;17.10;99.90;;;;;;5049279;28;20430;-73
2023/07/27 10:49:22;;;;;;;0.17;0.17;;;17.20;99.90;;;;;;5043370;28;20123;-73
2023/07/27 10:51:49;;;;;;;0.00;0.00;;;17.20;99.90;;;;;;5041342;28;20448;-71
2023/07/27 10:54:14;;;;;;;0.00;0.00;;;17.30;99.90;;;;;;5048228;28;20115;-73
2023/07/27 10:56:41;;;;;;;0.00;0.00;;;17.30;99.90;;;;;;5049352;28;20080;-73
2023/07/27 10:59:11;;;;;;;0.00;0.00;;;17.30;99.90;;;;;;5032209;28;20053;-73
2023/07/27 11:01:37;;;;;;;0.00;0.00;;;17.30;99.90;;;;;;5022374;28;20455;-73
2023/07/27 11:04:03;;;;;;;0.00;0.00;;;17.40;99.90;;;;;;5043324;28;20080;-73
2023/07/27 11:06:30;;;;;;;0.00;0.00;;;17.40;99.90;;;;;;5043811;28;20049;-73
2023/07/27 11:08:56;;;;;;;0.00;0.00;;;17.40;99.90;;;;;;5024077;28;20057;-74
2023/07/27 11:11:24;;;;;;;0.00;0.00;;;17.50;99.90;;;;;;5037063;28;20033;-74
2023/07/27 11:13:50;;;;;;;0.00;0.00;;;17.50;99.90;;;;;;5037361;28;20136;-74
2023/07/27 11:16:16;;;;;;;0.00;0.00;;;17.50;99.90;;;;;;5044743;28;20037;-74
2023/07/27 11:18:42;;;;;;;0.03;0.03;;;17.50;99.90;;;;;;5040322;28;20480;-74
2023/07/27 11:21:09;;;;;;;0.70;0.38;;;17.50;99.90;;;;;;5035913;28;20080;-74
2023/07/27 11:23:43;;;;;;;0.00;0.00;;;17.60;99.90;;;;;;5038228;28;20462;-74
2023/07/27 11:26:09;;;;;;;0.00;0.00;;;17.60;99.90;;;;;;5026759;28;20064;-74
2023/07/27 11:28:35;;;;;;;0.00;0.00;;;17.70;99.90;;;;;;5022857;28;20487;-74
2023/07/27 11:31:01;;;;;;;0.00;0.00;;;17.70;99.90;;;;;;5028274;28;20052;-74
2023/07/27 11:33:36;;;;;;;0.00;0.00;;;17.80;99.90;;;;;;5039504;28;20037;-74
2023/07/27 11:36:04;;;;;;;0.00;0.00;;;17.80;99.90;;;;;;5048571;28;20051;-74
2023/07/27 11:38:30;;;;;;;0.00;0.00;;;17.90;99.90;;;;;;5028852;28;20045;-74
2023/07/27 11:40:57;;;;;;;0.00;0.00;;;17.80;99.90;;;;;;5040689;28;20040;-74
2023/07/27 11:43:24;;;;;;;0.10;0.10;;;17.80;99.90;;;;;;5048668;28;20403;-74
2023/07/27 11:45:56;;;;;;;0.13;0.10;;;17.90;99.90;;;;;;5045311;28;20044;-74
2023/07/27 11:48:26;;;;;;;0.00;0.00;;;17.80;99.90;;;;;;5035084;28;20037;-73
2023/07/27 11:50:57;;;;;;;0.00;0.00;;;17.80;99.90;;;;;;5023438;28;20393;-73
2023/07/27 11:53:24;;;;;;;0.00;0.00;;;17.80;99.90;;;;;;5023329;28;20132;-73
2023/07/27 11:55:50;;;;;;;0.00;0.00;;;17.90;99.90;;;;;;5019527;28;20399;-73
2023/07/27 11:58:16;;;;;;;0.00;0.00;;;17.90;99.90;;;;;;5041493;28;20041;-73
2023/07/27 12:00:50;;;;;;;0.00;0.00;;;18.00;99.90;;;;;;5038564;28;20053;-73
2023/07/27 12:03:18;;;;;;;0.00;0.00;;;18.00;99.90;;;;;;5036557;28;20038;-73
2023/07/27 12:05:43;;;;;;;0.00;0.00;;;18.10;99.90;;;;;;5015695;28;20061;-73
2023/07/27 12:08:09;;;;;;;0.00;0.00;;;18.10;99.90;;;;;;5043531;28;20090;-73
2023/07/27 12:10:34;;;;;;;0.00;0.00;;;18.10;99.90;;;;;;5046013;28;20047;-73
2023/07/27 12:13:05;;;;;;;0.00;0.00;;;18.20;99.90;;;;;;5022211;28;20033;-73
2023/07/27 12:15:32;;;;;;;0.00;0.00;;;18.20;99.90;;;;;;5044677;28;20123;-73
2023/07/27 12:18:00;;;;;;;0.00;0.00;;;18.20;99.90;;;;;;5041808;28;20033;-73
2023/07/27 12:20:27;;;;;;;0.00;0.00;;;18.20;99.90;;;;;;5036082;28;20398;-73
2023/07/27 12:22:52;;;;;;;0.00;0.00;;;18.30;99.90;;;;;;5042019;28;20049;-73
2023/07/27 12:25:19;;;;;;;0.00;0.00;;;18.30;99.90;;;;;;5036502;28;20041;-74
2023/07/27 12:27:45;;;;;;;0.00;0.00;;;18.40;99.90;;;;;;5030398;28;20674;-73
2023/07/27 12:30:11;;;;;;;0.00;0.00;;;18.40;99.90;;;;;;5031433;28;20402;-74
2023/07/27 12:32:37;;;;;;;0.00;0.00;;;18.50;99.90;;;;;;5043311;28;20044;-73
2023/07/27 12:35:03;;;;;;;0.00;0.00;;;18.60;99.90;;;;;;5031376;28;20064;-74
2023/07/27 12:37:30;;;;;;;0.00;0.00;;;18.50;99.90;;;;;;5044831;28;20091;-73
2023/07/27 12:39:56;;;;;;;0.57;0.57;;;18.50;99.90;;;;;;5037759;28;20434;-73
2023/07/27 12:42:21;;;;;;;0.00;0.00;;;18.50;99.90;;;;;;5040731;28;20045;-74
2023/07/27 12:44:47;;;;;;;0.00;0.00;;;18.50;99.90;;;;;;5016211;28;20093;-74
2023/07/27 12:47:13;;;;;;;0.00;0.00;;;18.50;99.90;;;;;;5024408;28;20144;-74
2023/07/27 12:49:39;;;;;;;0.00;0.00;;;18.50;99.90;;;;;;5036969;28;20046;-74